Veenendaal, Netherlands
Current Conditions -  °F | °C
As of 2:55 PM on Monday 24 Nov 2014 (Local Time) from EHDL Reporting Station
Broken Clouds Broken Clouds  
Wind Chill: 50°   Ceiling: 3600
Heat Index: 50°   Visibility: 6mi
Dew Point: 43°   Wind: 6mph
Humidity: 76%   Direction: 290°WNW
Pressure: 30.27"   Gusts: NA
Location:  52.03°N, 5.56°E
Report Text: EHDL 241355Z AUTO 29005KT 9999 SCT024 SCT029 BKN036 10/06 Q1025 WHT
Loading
Personal Weather Stations






























Interactive Weather Map New forecast layout! Learn more

10-Day Weather Forecast

Advertisements
Track Severe Weather on mobile